sensor_id;sensor_type;location;lat;lon;timestamp;P1;durP1;ratioP1;P2;durP2;ratioP2
23494;SDS011;26107;50.832;2.950;2023-04-19T00:06:40;22.55;;;15.50;;
23494;SDS011;26107;50.832;2.950;2023-04-19T00:21:41;23.20;;;16.67;;
23494;SDS011;26107;50.832;2.950;2023-04-19T00:36:41;24.70;;;16.75;;
23494;SDS011;26107;50.832;2.950;2023-04-19T00:51:42;27.05;;;16.55;;
23494;SDS011;26107;50.832;2.950;2023-04-19T01:06:43;26.85;;;17.10;;
23494;SDS011;26107;50.832;2.950;2023-04-19T01:21:43;24.85;;;17.35;;
23494;SDS011;26107;50.832;2.950;2023-04-19T01:36:45;24.98;;;18.30;;
23494;SDS011;26107;50.832;2.950;2023-04-19T01:51:45;28.40;;;18.45;;
23494;SDS011;26107;50.832;2.950;2023-04-19T02:06:46;25.77;;;16.25;;
23494;SDS011;26107;50.832;2.950;2023-04-19T02:21:47;25.30;;;17.15;;
23494;SDS011;26107;50.832;2.950;2023-04-19T02:36:47;30.77;;;17.77;;
23494;SDS011;26107;50.832;2.950;2023-04-19T02:51:49;30.13;;;19.58;;
23494;SDS011;26107;50.832;2.950;2023-04-19T03:06:50;27.40;;;17.13;;
23494;SDS011;26107;50.832;2.950;2023-04-19T03:21:51;23.80;;;17.20;;
23494;SDS011;26107;50.832;2.950;2023-04-19T03:36:52;27.23;;;18.08;;
23494;SDS011;26107;50.832;2.950;2023-04-19T03:51:52;25.77;;;17.60;;
23494;SDS011;26107;50.832;2.950;2023-04-19T04:06:53;25.38;;;17.35;;
23494;SDS011;26107;50.832;2.950;2023-04-19T04:21:53;27.02;;;19.15;;
23494;SDS011;26107;50.832;2.950;2023-04-19T04:36:54;26.83;;;17.80;;
23494;SDS011;26107;50.832;2.950;2023-04-19T04:51:55;25.25;;;17.83;;
23494;SDS011;26107;50.832;2.950;2023-04-19T05:06:55;28.20;;;19.17;;
23494;SDS011;26107;50.832;2.950;2023-04-19T05:21:56;28.63;;;19.77;;
23494;SDS011;26107;50.832;2.950;2023-04-19T05:36:57;25.95;;;17.17;;
23494;SDS011;26107;50.832;2.950;2023-04-19T05:51:57;25.10;;;18.10;;
23494;SDS011;26107;50.832;2.950;2023-04-19T06:06:58;26.48;;;18.38;;
23494;SDS011;26107;50.832;2.950;2023-04-19T06:21:58;23.75;;;17.23;;
23494;SDS011;26107;50.832;2.950;2023-04-19T06:37:00;28.52;;;18.08;;
23494;SDS011;26107;50.832;2.950;2023-04-19T06:52:01;26.38;;;18.13;;
23494;SDS011;26107;50.832;2.950;2023-04-19T07:07:02;28.58;;;18.40;;
23494;SDS011;26107;50.832;2.950;2023-04-19T07:22:02;30.13;;;17.42;;
23494;SDS011;26107;50.832;2.950;2023-04-19T07:37:05;24.65;;;16.63;;
23494;SDS011;26107;50.832;2.950;2023-04-19T07:52:06;21.02;;;15.10;;
23494;SDS011;26107;50.832;2.950;2023-04-19T08:07:07;19.00;;;11.75;;
23494;SDS011;26107;50.832;2.950;2023-04-19T08:22:08;16.48;;;10.75;;
23494;SDS011;26107;50.832;2.950;2023-04-19T08:37:09;12.73;;;9.52;;
23494;SDS011;26107;50.832;2.950;2023-04-19T08:52:11;11.73;;;8.57;;
23494;SDS011;26107;50.832;2.950;2023-04-19T09:07:22;9.75;;;7.70;;
23494;SDS011;26107;50.832;2.950;2023-04-19T09:22:23;12.75;;;9.23;;
23494;SDS011;26107;50.832;2.950;2023-04-19T09:37:24;11.52;;;9.00;;
23494;SDS011;26107;50.832;2.950;2023-04-19T09:52:26;10.55;;;8.18;;
23494;SDS011;26107;50.832;2.950;2023-04-19T10:07:27;12.82;;;8.88;;
23494;SDS011;26107;50.832;2.950;2023-04-19T10:22:30;13.77;;;9.13;;
23494;SDS011;26107;50.832;2.950;2023-04-19T10:37:31;12.10;;;9.60;;
23494;SDS011;26107;50.832;2.950;2023-04-19T10:52:33;10.13;;;8.93;;
23494;SDS011;26107;50.832;2.950;2023-04-19T11:07:37;8.73;;;6.63;;
23494;SDS011;26107;50.832;2.950;2023-04-19T11:22:39;9.43;;;7.70;;
23494;SDS011;26107;50.832;2.950;2023-04-19T11:37:41;9.10;;;7.57;;
23494;SDS011;26107;50.832;2.950;2023-04-19T11:52:41;11.75;;;7.90;;
23494;SDS011;26107;50.832;2.950;2023-04-19T12:08:06;9.10;;;6.05;;
23494;SDS011;26107;50.832;2.950;2023-04-19T12:23:07;5.90;;;4.33;;
23494;SDS011;26107;50.832;2.950;2023-04-19T12:38:10;9.98;;;6.50;;
23494;SDS011;26107;50.832;2.950;2023-04-19T12:53:10;8.27;;;7.25;;
23494;SDS011;26107;50.832;2.950;2023-04-19T13:08:11;9.75;;;6.88;;
23494;SDS011;26107;50.832;2.950;2023-04-19T13:23:11;9.77;;;7.32;;
23494;SDS011;26107;50.832;2.950;2023-04-19T13:38:12;9.57;;;7.82;;
23494;SDS011;26107;50.832;2.950;2023-04-19T13:53:13;13.45;;;8.63;;
23494;SDS011;26107;50.832;2.950;2023-04-19T14:08:13;8.70;;;7.75;;
23494;SDS011;26107;50.832;2.950;2023-04-19T14:23:14;11.40;;;7.78;;
23494;SDS011;26107;50.832;2.950;2023-04-19T14:38:14;13.15;;;6.78;;
23494;SDS011;26107;50.832;2.950;2023-04-19T14:53:15;9.45;;;5.47;;
23494;SDS011;26107;50.832;2.950;2023-04-19T15:08:16;13.88;;;5.60;;
23494;SDS011;26107;50.832;2.950;2023-04-19T15:23:16;7.88;;;4.55;;
23494;SDS011;26107;50.832;2.950;2023-04-19T15:38:17;7.82;;;3.25;;
23494;SDS011;26107;50.832;2.950;2023-04-19T15:53:17;5.57;;;3.50;;
23494;SDS011;26107;50.832;2.950;2023-04-19T16:08:18;4.38;;;0.40;;
23494;SDS011;26107;50.832;2.950;2023-04-19T16:23:19;0.13;;;0.13;;
23494;SDS011;26107;50.832;2.950;2023-04-19T16:38:19;1.00;;;0.70;;
23494;SDS011;26107;50.832;2.950;2023-04-19T16:53:20;1.65;;;1.55;;
23494;SDS011;26107;50.832;2.950;2023-04-19T17:08:21;0.38;;;0.10;;
23494;SDS011;26107;50.832;2.950;2023-04-19T17:23:21;1.03;;;0.77;;
23494;SDS011;26107;50.832;2.950;2023-04-19T17:38:22;1.27;;;0.63;;
23494;SDS011;26107;50.832;2.950;2023-04-19T18:08:23;0.10;;;0.10;;
23494;SDS011;26107;50.832;2.950;2023-04-19T18:23:24;0.20;;;0.20;;
23494;SDS011;26107;50.832;2.950;2023-04-19T18:38:24;0.20;;;0.20;;
23494;SDS011;26107;50.832;2.950;2023-04-19T18:53:25;0.30;;;0.30;;
23494;SDS011;26107;50.832;2.950;2023-04-19T19:08:27;0.35;;;0.35;;
23494;SDS011;26107;50.832;2.950;2023-04-19T19:23:28;0.20;;;0.20;;
23494;SDS011;26107;50.832;2.950;2023-04-19T19:38:28;0.30;;;0.30;;
23494;SDS011;26107;50.832;2.950;2023-04-19T19:53:30;0.20;;;0.20;;
23494;SDS011;26107;50.832;2.950;2023-04-19T20:08:31;4.60;;;2.95;;
23494;SDS011;26107;50.832;2.950;2023-04-19T20:23:32;1.95;;;0.50;;
23494;SDS011;26107;50.832;2.950;2023-04-19T20:38:32;0.28;;;0.28;;
23494;SDS011;26107;50.832;2.950;2023-04-19T20:53:33;0.20;;;0.20;;
23494;SDS011;26107;50.832;2.950;2023-04-19T21:08:34;0.30;;;0.30;;
23494;SDS011;26107;50.832;2.950;2023-04-19T21:23:35;0.22;;;0.22;;
23494;SDS011;26107;50.832;2.950;2023-04-19T21:38:37;1.10;;;1.10;;
23494;SDS011;26107;50.832;2.950;2023-04-19T21:53:38;0.50;;;0.50;;
23494;SDS011;26107;50.832;2.950;2023-04-19T22:08:38;0.30;;;0.30;;
23494;SDS011;26107;50.832;2.950;2023-04-19T22:23:39;6.28;;;3.30;;
23494;SDS011;26107;50.832;2.950;2023-04-19T22:38:40;5.85;;;4.18;;
23494;SDS011;26107;50.832;2.950;2023-04-19T22:53:40;10.43;;;5.05;;
23494;SDS011;26107;50.832;2.950;2023-04-19T23:08:41;9.95;;;5.28;;
23494;SDS011;26107;50.832;2.950;2023-04-19T23:23:42;8.02;;;4.55;;
23494;SDS011;26107;50.832;2.950;2023-04-19T23:38:42;8.35;;;4.07;;
23494;SDS011;26107;50.832;2.950;2023-04-19T23:53:43;7.78;;;4.38;;
